sensor_id;sensor_type;location;lat;lon;timestamp;P1;durP1;ratioP1;P2;durP2;ratioP2
39322;SDS011;25036;53.638;10.134;2022-09-21T00:00:19;4.90;;;2.23;;
39322;SDS011;25036;53.638;10.134;2022-09-21T00:01:20;3.50;;;2.27;;
39322;SDS011;25036;53.638;10.134;2022-09-21T00:02:21;3.00;;;2.22;;
39322;SDS011;25036;53.638;10.134;2022-09-21T00:03:21;2.63;;;2.20;;
39322;SDS011;25036;53.638;10.134;2022-09-21T00:04:21;2.63;;;2.10;;
39322;SDS011;25036;53.638;10.134;2022-09-21T00:05:21;3.38;;;2.25;;
39322;SDS011;25036;53.638;10.134;2022-09-21T00:06:22;3.25;;;2.60;;
39322;SDS011;25036;53.638;10.134;2022-09-21T00:07:22;2.75;;;1.98;;
39322;SDS011;25036;53.638;10.134;2022-09-21T00:08:23;4.00;;;2.30;;
39322;SDS011;25036;53.638;10.134;2022-09-21T00:09:23;4.10;;;2.90;;
39322;SDS011;25036;53.638;10.134;2022-09-21T00:10:23;2.60;;;2.30;;
39322;SDS011;25036;53.638;10.134;2022-09-21T00:11:25;3.17;;;2.00;;
39322;SDS011;25036;53.638;10.134;2022-09-21T00:12:25;3.13;;;2.33;;
39322;SDS011;25036;53.638;10.134;2022-09-21T00:13:26;3.27;;;2.10;;
39322;SDS011;25036;53.638;10.134;2022-09-21T00:14:27;4.15;;;2.10;;
39322;SDS011;25036;53.638;10.134;2022-09-21T00:15:27;2.35;;;1.90;;
39322;SDS011;25036;53.638;10.134;2022-09-21T00:16:28;2.30;;;2.08;;
39322;SDS011;25036;53.638;10.134;2022-09-21T00:17:28;3.53;;;2.30;;
39322;SDS011;25036;53.638;10.134;2022-09-21T00:18:29;3.57;;;2.13;;
39322;SDS011;25036;53.638;10.134;2022-09-21T00:19:29;4.38;;;2.35;;
39322;SDS011;25036;53.638;10.134;2022-09-21T00:20:29;5.20;;;2.23;;
39322;SDS011;25036;53.638;10.134;2022-09-21T00:21:30;3.37;;;2.10;;
39322;SDS011;25036;53.638;10.134;2022-09-21T00:22:32;3.72;;;2.50;;
39322;SDS011;25036;53.638;10.134;2022-09-21T00:23:34;3.80;;;2.38;;
39322;SDS011;25036;53.638;10.134;2022-09-21T00:24:34;2.95;;;2.50;;
39322;SDS011;25036;53.638;10.134;2022-09-21T00:25:34;3.63;;;2.20;;
39322;SDS011;25036;53.638;10.134;2022-09-21T00:26:35;4.13;;;2.20;;
39322;SDS011;25036;53.638;10.134;2022-09-21T00:27:35;3.10;;;2.20;;
39322;SDS011;25036;53.638;10.134;2022-09-21T00:28:35;4.13;;;2.45;;
39322;SDS011;25036;53.638;10.134;2022-09-21T00:29:36;4.60;;;2.40;;
39322;SDS011;25036;53.638;10.134;2022-09-21T00:30:36;3.87;;;2.40;;
39322;SDS011;25036;53.638;10.134;2022-09-21T00:31:36;3.22;;;2.28;;
39322;SDS011;25036;53.638;10.134;2022-09-21T00:32:36;2.90;;;2.40;;
39322;SDS011;25036;53.638;10.134;2022-09-21T00:33:37;4.57;;;2.25;;
39322;SDS011;25036;53.638;10.134;2022-09-21T00:34:38;3.97;;;2.50;;
39322;SDS011;25036;53.638;10.134;2022-09-21T00:35:38;3.30;;;2.13;;
39322;SDS011;25036;53.638;10.134;2022-09-21T00:36:38;3.77;;;2.40;;
39322;SDS011;25036;53.638;10.134;2022-09-21T00:37:38;3.40;;;2.20;;
39322;SDS011;25036;53.638;10.134;2022-09-21T00:38:38;4.03;;;2.47;;
39322;SDS011;25036;53.638;10.134;2022-09-21T00:39:38;3.85;;;2.58;;
39322;SDS011;25036;53.638;10.134;2022-09-21T00:40:39;3.75;;;2.08;;
39322;SDS011;25036;53.638;10.134;2022-09-21T00:41:39;4.00;;;2.33;;
39322;SDS011;25036;53.638;10.134;2022-09-21T00:42:39;4.70;;;2.35;;
39322;SDS011;25036;53.638;10.134;2022-09-21T00:43:43;3.07;;;2.30;;
39322;SDS011;25036;53.638;10.134;2022-09-21T00:44:44;3.53;;;1.98;;
39322;SDS011;25036;53.638;10.134;2022-09-21T00:45:44;5.78;;;2.53;;
39322;SDS011;25036;53.638;10.134;2022-09-21T00:46:46;2.88;;;2.10;;
39322;SDS011;25036;53.638;10.134;2022-09-21T00:47:49;2.25;;;1.90;;
39322;SDS011;25036;53.638;10.134;2022-09-21T00:48:50;2.50;;;2.15;;
39322;SDS011;25036;53.638;10.134;2022-09-21T00:49:51;5.03;;;2.10;;
39322;SDS011;25036;53.638;10.134;2022-09-21T00:50:53;3.03;;;2.35;;
39322;SDS011;25036;53.638;10.134;2022-09-21T00:51:55;4.88;;;2.35;;
39322;SDS011;25036;53.638;10.134;2022-09-21T00:52:57;5.18;;;2.28;;
39322;SDS011;25036;53.638;10.134;2022-09-21T00:53:59;3.58;;;2.08;;
39322;SDS011;25036;53.638;10.134;2022-09-21T00:55:03;4.65;;;2.47;;
39322;SDS011;25036;53.638;10.134;2022-09-21T00:56:04;4.35;;;2.33;;
39322;SDS011;25036;53.638;10.134;2022-09-21T00:57:05;4.53;;;2.20;;
39322;SDS011;25036;53.638;10.134;2022-09-21T00:58:08;3.75;;;2.05;;
39322;SDS011;25036;53.638;10.134;2022-09-21T00:59:11;3.58;;;1.80;;
39322;SDS011;25036;53.638;10.134;2022-09-21T01:00:13;3.50;;;2.20;;
39322;SDS011;25036;53.638;10.134;2022-09-21T01:01:14;2.90;;;2.13;;
39322;SDS011;25036;53.638;10.134;2022-09-21T01:02:17;2.50;;;2.10;;
39322;SDS011;25036;53.638;10.134;2022-09-21T01:03:17;2.60;;;1.88;;
39322;SDS011;25036;53.638;10.134;2022-09-21T01:04:17;3.60;;;1.80;;
39322;SDS011;25036;53.638;10.134;2022-09-21T01:05:18;2.72;;;2.03;;
39322;SDS011;25036;53.638;10.134;2022-09-21T01:06:19;2.30;;;1.77;;
39322;SDS011;25036;53.638;10.134;2022-09-21T01:07:20;3.80;;;2.05;;
39322;SDS011;25036;53.638;10.134;2022-09-21T01:08:22;2.20;;;1.70;;
39322;SDS011;25036;53.638;10.134;2022-09-21T01:09:25;2.72;;;1.73;;
39322;SDS011;25036;53.638;10.134;2022-09-21T01:10:25;3.38;;;2.00;;
39322;SDS011;25036;53.638;10.134;2022-09-21T01:11:34;4.88;;;2.13;;
39322;SDS011;25036;53.638;10.134;2022-09-21T01:12:43;2.33;;;1.48;;
39322;SDS011;25036;53.638;10.134;2022-09-21T01:13:58;1.98;;;1.83;;
39322;SDS011;25036;53.638;10.134;2022-09-21T01:15:14;3.30;;;1.52;;
39322;SDS011;25036;53.638;10.134;2022-09-21T01:16:18;2.17;;;1.75;;
39322;SDS011;25036;53.638;10.134;2022-09-21T01:18:29;4.97;;;1.60;;
39322;SDS011;25036;53.638;10.134;2022-09-21T01:19:39;1.95;;;1.50;;
39322;SDS011;25036;53.638;10.134;2022-09-21T01:21:59;3.60;;;1.88;;
39322;SDS011;25036;53.638;10.134;2022-09-21T01:25:29;2.75;;;2.10;;
39322;SDS011;25036;53.638;10.134;2022-09-21T01:27:48;2.15;;;1.85;;
39322;SDS011;25036;53.638;10.134;2022-09-21T01:29:59;4.00;;;2.10;;
39322;SDS011;25036;53.638;10.134;2022-09-21T01:31:02;3.55;;;2.30;;
39322;SDS011;25036;53.638;10.134;2022-09-21T01:32:09;2.97;;;1.75;;
39322;SDS011;25036;53.638;10.134;2022-09-21T01:33:12;4.03;;;2.40;;
39322;SDS011;25036;53.638;10.134;2022-09-21T01:34:37;3.65;;;2.13;;
39322;SDS011;25036;53.638;10.134;2022-09-21T01:35:36;3.40;;;2.20;;
39322;SDS011;25036;53.638;10.134;2022-09-21T01:36:38;3.85;;;2.13;;
39322;SDS011;25036;53.638;10.134;2022-09-21T01:37:41;3.83;;;2.10;;
39322;SDS011;25036;53.638;10.134;2022-09-21T01:38:47;3.35;;;1.90;;
39322;SDS011;25036;53.638;10.134;2022-09-21T01:39:50;3.40;;;2.20;;
39322;SDS011;25036;53.638;10.134;2022-09-21T01:40:52;2.83;;;2.20;;
39322;SDS011;25036;53.638;10.134;2022-09-21T01:41:54;7.35;;;2.20;;
39322;SDS011;25036;53.638;10.134;2022-09-21T01:42:55;3.97;;;2.35;;
39322;SDS011;25036;53.638;10.134;2022-09-21T01:44:02;5.78;;;2.00;;
39322;SDS011;25036;53.638;10.134;2022-09-21T01:45:07;2.65;;;2.13;;
39322;SDS011;25036;53.638;10.134;2022-09-21T01:46:10;2.92;;;2.08;;
39322;SDS011;25036;53.638;10.134;2022-09-21T01:47:12;2.75;;;2.10;;
39322;SDS011;25036;53.638;10.134;2022-09-21T01:48:13;2.20;;;1.88;;
39322;SDS011;25036;53.638;10.134;2022-09-21T01:49:22;3.65;;;2.17;;
39322;SDS011;25036;53.638;10.134;2022-09-21T01:50:24;1.90;;;1.80;;
39322;SDS011;25036;53.638;10.134;2022-09-21T01:51:25;3.53;;;2.15;;
39322;SDS011;25036;53.638;10.134;2022-09-21T01:52:44;2.88;;;2.00;;
39322;SDS011;25036;53.638;10.134;2022-09-21T01:53:50;2.33;;;1.67;;
39322;SDS011;25036;53.638;10.134;2022-09-21T01:54:53;2.10;;;1.90;;
39322;SDS011;25036;53.638;10.134;2022-09-21T01:55:55;2.97;;;2.08;;
39322;SDS011;25036;53.638;10.134;2022-09-21T01:56:58;2.15;;;1.80;;
39322;SDS011;25036;53.638;10.134;2022-09-21T01:58:04;3.95;;;2.10;;
39322;SDS011;25036;53.638;10.134;2022-09-21T01:59:17;3.03;;;1.90;;
39322;SDS011;25036;53.638;10.134;2022-09-21T02:00:20;2.90;;;2.10;;
39322;SDS011;25036;53.638;10.134;2022-09-21T02:01:21;3.95;;;1.95;;
39322;SDS011;25036;53.638;10.134;2022-09-21T02:03:52;3.55;;;2.03;;
39322;SDS011;25036;53.638;10.134;2022-09-21T02:04:54;4.20;;;2.05;;
39322;SDS011;25036;53.638;10.134;2022-09-21T02:05:55;2.17;;;1.73;;
39322;SDS011;25036;53.638;10.134;2022-09-21T02:06:56;2.30;;;1.83;;
39322;SDS011;25036;53.638;10.134;2022-09-21T02:07:56;2.10;;;1.90;;
39322;SDS011;25036;53.638;10.134;2022-09-21T02:08:57;2.25;;;1.85;;
39322;SDS011;25036;53.638;10.134;2022-09-21T02:09:57;2.80;;;2.00;;
39322;SDS011;25036;53.638;10.134;2022-09-21T02:10:59;3.88;;;1.90;;
39322;SDS011;25036;53.638;10.134;2022-09-21T02:12:00;2.65;;;1.77;;
39322;SDS011;25036;53.638;10.134;2022-09-21T02:13:02;3.30;;;1.80;;
39322;SDS011;25036;53.638;10.134;2022-09-21T02:14:04;3.40;;;1.80;;
39322;SDS011;25036;53.638;10.134;2022-09-21T02:15:09;3.35;;;1.80;;
39322;SDS011;25036;53.638;10.134;2022-09-21T02:16:20;2.42;;;1.52;;
39322;SDS011;25036;53.638;10.134;2022-09-21T02:18:41;2.80;;;1.58;;
39322;SDS011;25036;53.638;10.134;2022-09-21T02:19:49;1.80;;;1.70;;
39322;SDS011;25036;53.638;10.134;2022-09-21T02:20:55;2.95;;;1.58;;
39322;SDS011;25036;53.638;10.134;2022-09-21T02:24:43;2.85;;;1.88;;
39322;SDS011;25036;53.638;10.134;2022-09-21T02:25:50;3.65;;;2.00;;
39322;SDS011;25036;53.638;10.134;2022-09-21T02:26:57;3.17;;;1.88;;
39322;SDS011;25036;53.638;10.134;2022-09-21T02:28:06;8.15;;;2.40;;
39322;SDS011;25036;53.638;10.134;2022-09-21T02:29:23;3.53;;;1.83;;
39322;SDS011;25036;53.638;10.134;2022-09-21T02:30:24;2.08;;;1.85;;
39322;SDS011;25036;53.638;10.134;2022-09-21T02:33:56;3.08;;;2.10;;
39322;SDS011;25036;53.638;10.134;2022-09-21T02:35:00;2.88;;;1.70;;
39322;SDS011;25036;53.638;10.134;2022-09-21T02:36:19;2.75;;;1.85;;
39322;SDS011;25036;53.638;10.134;2022-09-21T02:37:22;3.65;;;2.40;;
39322;SDS011;25036;53.638;10.134;2022-09-21T02:39:37;3.95;;;2.40;;
39322;SDS011;25036;53.638;10.134;2022-09-21T02:40:40;4.57;;;1.90;;
39322;SDS011;25036;53.638;10.134;2022-09-21T02:41:45;6.07;;;2.55;;
39322;SDS011;25036;53.638;10.134;2022-09-21T02:42:48;2.60;;;2.15;;
39322;SDS011;25036;53.638;10.134;2022-09-21T02:43:50;3.55;;;1.90;;
39322;SDS011;25036;53.638;10.134;2022-09-21T02:44:53;2.60;;;2.00;;
39322;SDS011;25036;53.638;10.134;2022-09-21T02:45:56;13.95;;;2.15;;
39322;SDS011;25036;53.638;10.134;2022-09-21T02:46:59;3.28;;;1.80;;
39322;SDS011;25036;53.638;10.134;2022-09-21T02:48:04;2.92;;;1.90;;
39322;SDS011;25036;53.638;10.134;2022-09-21T02:49:07;2.10;;;1.83;;
39322;SDS011;25036;53.638;10.134;2022-09-21T02:50:11;2.28;;;1.63;;
39322;SDS011;25036;53.638;10.134;2022-09-21T02:51:14;3.70;;;1.95;;
39322;SDS011;25036;53.638;10.134;2022-09-21T02:52:16;4.93;;;2.05;;
39322;SDS011;25036;53.638;10.134;2022-09-21T02:53:18;3.58;;;2.13;;
39322;SDS011;25036;53.638;10.134;2022-09-21T02:54:21;4.13;;;2.15;;
39322;SDS011;25036;53.638;10.134;2022-09-21T02:55:23;3.53;;;2.15;;
39322;SDS011;25036;53.638;10.134;2022-09-21T02:56:24;3.10;;;2.15;;
39322;SDS011;25036;53.638;10.134;2022-09-21T02:57:25;2.78;;;2.20;;
39322;SDS011;25036;53.638;10.134;2022-09-21T02:58:25;2.88;;;2.30;;
39322;SDS011;25036;53.638;10.134;2022-09-21T02:59:26;2.25;;;2.05;;
39322;SDS011;25036;53.638;10.134;2022-09-21T03:00:27;4.65;;;3.00;;
39322;SDS011;25036;53.638;10.134;2022-09-21T03:01:27;3.97;;;3.10;;
39322;SDS011;25036;53.638;10.134;2022-09-21T03:02:35;3.55;;;2.80;;
39322;SDS011;25036;53.638;10.134;2022-09-21T03:03:35;4.00;;;2.75;;
39322;SDS011;25036;53.638;10.134;2022-09-21T03:04:35;3.55;;;2.63;;
39322;SDS011;25036;53.638;10.134;2022-09-21T03:05:36;3.08;;;2.38;;
39322;SDS011;25036;53.638;10.134;2022-09-21T03:06:36;3.90;;;2.50;;
39322;SDS011;25036;53.638;10.134;2022-09-21T03:07:36;3.08;;;2.22;;
39322;SDS011;25036;53.638;10.134;2022-09-21T03:08:36;2.97;;;2.07;;
39322;SDS011;25036;53.638;10.134;2022-09-21T03:09:36;3.63;;;2.70;;
39322;SDS011;25036;53.638;10.134;2022-09-21T03:10:36;6.57;;;2.60;;
39322;SDS011;25036;53.638;10.134;2022-09-21T03:11:39;2.92;;;2.20;;
39322;SDS011;25036;53.638;10.134;2022-09-21T03:12:41;4.18;;;2.30;;
39322;SDS011;25036;53.638;10.134;2022-09-21T03:13:44;6.95;;;2.65;;
39322;SDS011;25036;53.638;10.134;2022-09-21T03:14:44;3.05;;;2.15;;
39322;SDS011;25036;53.638;10.134;2022-09-21T03:15:45;2.63;;;1.77;;
39322;SDS011;25036;53.638;10.134;2022-09-21T03:16:46;4.18;;;2.13;;
39322;SDS011;25036;53.638;10.134;2022-09-21T03:17:46;3.58;;;2.05;;
39322;SDS011;25036;53.638;10.134;2022-09-21T03:18:46;2.28;;;2.08;;
39322;SDS011;25036;53.638;10.134;2022-09-21T03:19:46;2.85;;;1.92;;
39322;SDS011;25036;53.638;10.134;2022-09-21T03:20:46;2.83;;;2.33;;
39322;SDS011;25036;53.638;10.134;2022-09-21T03:21:46;3.07;;;2.30;;
39322;SDS011;25036;53.638;10.134;2022-09-21T03:22:46;3.57;;;1.90;;
39322;SDS011;25036;53.638;10.134;2022-09-21T03:23:47;2.87;;;2.10;;
39322;SDS011;25036;53.638;10.134;2022-09-21T03:24:47;2.43;;;1.83;;
39322;SDS011;25036;53.638;10.134;2022-09-21T03:25:47;3.40;;;2.25;;
39322;SDS011;25036;53.638;10.134;2022-09-21T03:26:47;4.35;;;2.30;;
39322;SDS011;25036;53.638;10.134;2022-09-21T03:27:47;3.73;;;1.97;;
39322;SDS011;25036;53.638;10.134;2022-09-21T03:28:52;3.17;;;2.30;;
39322;SDS011;25036;53.638;10.134;2022-09-21T03:29:53;6.90;;;2.53;;
39322;SDS011;25036;53.638;10.134;2022-09-21T03:30:53;3.03;;;2.60;;
39322;SDS011;25036;53.638;10.134;2022-09-21T03:31:53;3.50;;;2.72;;
39322;SDS011;25036;53.638;10.134;2022-09-21T03:32:54;5.07;;;2.85;;
39322;SDS011;25036;53.638;10.134;2022-09-21T03:33:55;2.97;;;2.67;;
39322;SDS011;25036;53.638;10.134;2022-09-21T03:34:55;4.17;;;2.40;;
39322;SDS011;25036;53.638;10.134;2022-09-21T03:35:55;3.60;;;2.60;;
39322;SDS011;25036;53.638;10.134;2022-09-21T03:36:55;4.47;;;2.58;;
39322;SDS011;25036;53.638;10.134;2022-09-21T03:37:56;3.60;;;2.55;;
39322;SDS011;25036;53.638;10.134;2022-09-21T03:38:56;3.53;;;2.50;;
39322;SDS011;25036;53.638;10.134;2022-09-21T03:39:57;4.70;;;2.47;;
39322;SDS011;25036;53.638;10.134;2022-09-21T03:40:57;5.07;;;2.72;;
39322;SDS011;25036;53.638;10.134;2022-09-21T03:41:58;4.03;;;2.50;;
39322;SDS011;25036;53.638;10.134;2022-09-21T03:42:58;5.93;;;2.80;;
39322;SDS011;25036;53.638;10.134;2022-09-21T03:43:59;5.28;;;2.67;;
39322;SDS011;25036;53.638;10.134;2022-09-21T03:44:59;3.63;;;2.60;;
39322;SDS011;25036;53.638;10.134;2022-09-21T03:45:59;7.83;;;2.70;;
39322;SDS011;25036;53.638;10.134;2022-09-21T03:46:59;3.20;;;2.47;;
39322;SDS011;25036;53.638;10.134;2022-09-21T03:47:59;5.65;;;2.70;;
39322;SDS011;25036;53.638;10.134;2022-09-21T03:49:00;3.78;;;2.97;;
39322;SDS011;25036;53.638;10.134;2022-09-21T03:50:01;3.53;;;2.78;;
39322;SDS011;25036;53.638;10.134;2022-09-21T03:51:02;4.00;;;2.95;;
39322;SDS011;25036;53.638;10.134;2022-09-21T03:52:02;3.60;;;2.70;;
39322;SDS011;25036;53.638;10.134;2022-09-21T03:53:02;4.90;;;2.40;;
39322;SDS011;25036;53.638;10.134;2022-09-21T03:54:02;5.38;;;2.40;;
39322;SDS011;25036;53.638;10.134;2022-09-21T03:55:04;4.85;;;2.58;;
39322;SDS011;25036;53.638;10.134;2022-09-21T03:56:05;3.30;;;2.47;;
39322;SDS011;25036;53.638;10.134;2022-09-21T03:57:05;4.00;;;2.60;;
39322;SDS011;25036;53.638;10.134;2022-09-21T03:58:05;3.23;;;2.40;;
39322;SDS011;25036;53.638;10.134;2022-09-21T03:59:06;3.83;;;2.42;;
39322;SDS011;25036;53.638;10.134;2022-09-21T04:00:07;3.27;;;2.37;;
39322;SDS011;25036;53.638;10.134;2022-09-21T04:01:08;4.57;;;2.15;;
39322;SDS011;25036;53.638;10.134;2022-09-21T04:02:08;3.97;;;2.47;;
39322;SDS011;25036;53.638;10.134;2022-09-21T04:03:08;3.47;;;2.37;;
39322;SDS011;25036;53.638;10.134;2022-09-21T04:04:08;2.90;;;2.30;;
39322;SDS011;25036;53.638;10.134;2022-09-21T04:05:10;6.47;;;2.33;;
39322;SDS011;25036;53.638;10.134;2022-09-21T04:06:11;3.47;;;2.03;;
39322;SDS011;25036;53.638;10.134;2022-09-21T04:07:11;3.65;;;2.13;;
39322;SDS011;25036;53.638;10.134;2022-09-21T04:08:11;4.43;;;2.33;;
39322;SDS011;25036;53.638;10.134;2022-09-21T04:09:11;2.75;;;2.15;;
39322;SDS011;25036;53.638;10.134;2022-09-21T04:10:13;3.65;;;2.28;;
39322;SDS011;25036;53.638;10.134;2022-09-21T04:11:14;3.45;;;2.30;;
39322;SDS011;25036;53.638;10.134;2022-09-21T04:12:14;3.97;;;2.33;;
39322;SDS011;25036;53.638;10.134;2022-09-21T04:13:14;2.97;;;2.13;;
39322;SDS011;25036;53.638;10.134;2022-09-21T04:14:14;2.83;;;2.40;;
39322;SDS011;25036;53.638;10.134;2022-09-21T04:15:16;2.40;;;1.90;;
39322;SDS011;25036;53.638;10.134;2022-09-21T04:16:18;2.92;;;2.25;;
39322;SDS011;25036;53.638;10.134;2022-09-21T04:17:18;4.87;;;2.60;;
39322;SDS011;25036;53.638;10.134;2022-09-21T04:18:18;8.25;;;2.70;;
39322;SDS011;25036;53.638;10.134;2022-09-21T04:19:19;3.20;;;2.35;;
39322;SDS011;25036;53.638;10.134;2022-09-21T04:20:21;2.72;;;1.98;;
39322;SDS011;25036;53.638;10.134;2022-09-21T04:21:21;3.83;;;2.33;;
39322;SDS011;25036;53.638;10.134;2022-09-21T04:22:21;3.40;;;2.40;;
39322;SDS011;25036;53.638;10.134;2022-09-21T04:23:23;3.67;;;2.55;;
39322;SDS011;25036;53.638;10.134;2022-09-21T04:24:23;5.47;;;2.30;;
39322;SDS011;25036;53.638;10.134;2022-09-21T04:25:24;5.47;;;2.30;;
39322;SDS011;25036;53.638;10.134;2022-09-21T04:26:29;3.28;;;2.30;;
39322;SDS011;25036;53.638;10.134;2022-09-21T04:27:30;3.20;;;2.65;;
39322;SDS011;25036;53.638;10.134;2022-09-21T04:28:30;8.70;;;3.08;;
39322;SDS011;25036;53.638;10.134;2022-09-21T04:29:31;4.40;;;2.70;;
39322;SDS011;25036;53.638;10.134;2022-09-21T04:30:31;4.85;;;2.70;;
39322;SDS011;25036;53.638;10.134;2022-09-21T04:31:32;4.07;;;2.92;;
39322;SDS011;25036;53.638;10.134;2022-09-21T04:32:32;6.60;;;3.05;;
39322;SDS011;25036;53.638;10.134;2022-09-21T04:33:33;4.88;;;2.95;;
39322;SDS011;25036;53.638;10.134;2022-09-21T04:34:33;4.32;;;2.35;;
39322;SDS011;25036;53.638;10.134;2022-09-21T04:35:33;4.70;;;2.40;;
39322;SDS011;25036;53.638;10.134;2022-09-21T04:36:33;4.20;;;2.33;;
39322;SDS011;25036;53.638;10.134;2022-09-21T04:37:34;3.95;;;2.33;;
39322;SDS011;25036;53.638;10.134;2022-09-21T04:38:34;3.90;;;2.37;;
39322;SDS011;25036;53.638;10.134;2022-09-21T04:39:34;5.30;;;2.87;;
39322;SDS011;25036;53.638;10.134;2022-09-21T04:40:34;6.57;;;2.67;;
39322;SDS011;25036;53.638;10.134;2022-09-21T04:41:34;4.22;;;2.78;;
39322;SDS011;25036;53.638;10.134;2022-09-21T04:42:34;3.10;;;2.40;;
39322;SDS011;25036;53.638;10.134;2022-09-21T04:43:35;5.50;;;2.58;;
39322;SDS011;25036;53.638;10.134;2022-09-21T04:44:35;5.13;;;2.63;;
39322;SDS011;25036;53.638;10.134;2022-09-21T04:45:35;4.07;;;2.23;;
39322;SDS011;25036;53.638;10.134;2022-09-21T04:46:35;3.75;;;2.40;;
39322;SDS011;25036;53.638;10.134;2022-09-21T04:47:35;5.27;;;2.53;;
39322;SDS011;25036;53.638;10.134;2022-09-21T04:48:35;4.23;;;2.33;;
39322;SDS011;25036;53.638;10.134;2022-09-21T04:49:36;3.72;;;1.95;;
39322;SDS011;25036;53.638;10.134;2022-09-21T04:50:37;3.40;;;2.15;;
39322;SDS011;25036;53.638;10.134;2022-09-21T04:51:37;4.17;;;2.30;;
39322;SDS011;25036;53.638;10.134;2022-09-21T04:52:38;2.97;;;2.00;;
39322;SDS011;25036;53.638;10.134;2022-09-21T04:53:39;4.00;;;2.25;;
39322;SDS011;25036;53.638;10.134;2022-09-21T04:54:39;3.30;;;1.98;;
39322;SDS011;25036;53.638;10.134;2022-09-21T04:55:40;4.18;;;2.28;;
39322;SDS011;25036;53.638;10.134;2022-09-21T04:56:40;2.60;;;1.90;;
39322;SDS011;25036;53.638;10.134;2022-09-21T04:57:40;2.23;;;1.80;;
39322;SDS011;25036;53.638;10.134;2022-09-21T04:58:40;6.63;;;2.10;;
39322;SDS011;25036;53.638;10.134;2022-09-21T04:59:41;4.90;;;2.10;;
39322;SDS011;25036;53.638;10.134;2022-09-21T05:00:41;3.43;;;2.20;;
39322;SDS011;25036;53.638;10.134;2022-09-21T05:01:41;3.25;;;1.92;;
39322;SDS011;25036;53.638;10.134;2022-09-21T05:02:41;3.00;;;2.03;;
39322;SDS011;25036;53.638;10.134;2022-09-21T05:03:41;4.20;;;2.10;;
39322;SDS011;25036;53.638;10.134;2022-09-21T05:04:41;4.80;;;2.27;;
39322;SDS011;25036;53.638;10.134;2022-09-21T05:05:45;2.70;;;1.90;;
39322;SDS011;25036;53.638;10.134;2022-09-21T05:06:45;2.90;;;2.00;;
39322;SDS011;25036;53.638;10.134;2022-09-21T05:07:45;2.40;;;2.00;;
39322;SDS011;25036;53.638;10.134;2022-09-21T05:08:45;5.20;;;2.20;;
39322;SDS011;25036;53.638;10.134;2022-09-21T05:10:04;3.15;;;2.33;;
39322;SDS011;25036;53.638;10.134;2022-09-21T05:11:05;3.53;;;2.35;;
39322;SDS011;25036;53.638;10.134;2022-09-21T05:12:05;2.22;;;2.03;;
39322;SDS011;25036;53.638;10.134;2022-09-21T05:13:05;3.25;;;2.22;;
39322;SDS011;25036;53.638;10.134;2022-09-21T05:14:06;2.42;;;2.10;;
39322;SDS011;25036;53.638;10.134;2022-09-21T05:15:06;3.03;;;2.42;;
39322;SDS011;25036;53.638;10.134;2022-09-21T05:16:06;3.35;;;2.35;;
39322;SDS011;25036;53.638;10.134;2022-09-21T05:17:07;3.97;;;1.73;;
39322;SDS011;25036;53.638;10.134;2022-09-21T05:18:07;5.03;;;1.63;;
39322;SDS011;25036;53.638;10.134;2022-09-21T05:19:07;3.80;;;1.70;;
39322;SDS011;25036;53.638;10.134;2022-09-21T05:20:08;2.37;;;2.10;;
39322;SDS011;25036;53.638;10.134;2022-09-21T05:21:08;2.85;;;2.22;;
39322;SDS011;25036;53.638;10.134;2022-09-21T05:22:09;2.88;;;2.20;;
39322;SDS011;25036;53.638;10.134;2022-09-21T05:23:10;2.23;;;1.87;;
39322;SDS011;25036;53.638;10.134;2022-09-21T05:24:10;5.00;;;2.07;;
39322;SDS011;25036;53.638;10.134;2022-09-21T05:25:10;2.43;;;1.87;;
39322;SDS011;25036;53.638;10.134;2022-09-21T05:26:10;4.50;;;1.70;;
39322;SDS011;25036;53.638;10.134;2022-09-21T05:27:10;2.37;;;1.73;;
39322;SDS011;25036;53.638;10.134;2022-09-21T05:28:12;3.35;;;2.10;;
39322;SDS011;25036;53.638;10.134;2022-09-21T05:29:12;5.35;;;2.10;;
39322;SDS011;25036;53.638;10.134;2022-09-21T05:30:12;3.33;;;2.42;;
39322;SDS011;25036;53.638;10.134;2022-09-21T05:33:35;3.03;;;2.35;;
39322;SDS011;25036;53.638;10.134;2022-09-21T05:35:41;3.88;;;2.20;;
39322;SDS011;25036;53.638;10.134;2022-09-21T05:38:10;2.85;;;2.45;;
39322;SDS011;25036;53.638;10.134;2022-09-21T05:39:12;6.30;;;2.40;;
39322;SDS011;25036;53.638;10.134;2022-09-21T05:40:13;4.35;;;2.42;;
39322;SDS011;25036;53.638;10.134;2022-09-21T05:41:13;4.82;;;2.40;;
39322;SDS011;25036;53.638;10.134;2022-09-21T05:42:13;3.20;;;2.58;;
39322;SDS011;25036;53.638;10.134;2022-09-21T05:43:14;3.45;;;2.60;;
39322;SDS011;25036;53.638;10.134;2022-09-21T05:44:14;5.32;;;2.60;;
39322;SDS011;25036;53.638;10.134;2022-09-21T05:45:15;4.45;;;2.47;;
39322;SDS011;25036;53.638;10.134;2022-09-21T05:46:20;4.00;;;2.53;;
39322;SDS011;25036;53.638;10.134;2022-09-21T05:48:59;4.20;;;2.33;;
39322;SDS011;25036;53.638;10.134;2022-09-21T05:51:09;4.05;;;2.83;;
39322;SDS011;25036;53.638;10.134;2022-09-21T05:52:29;3.00;;;2.40;;
39322;SDS011;25036;53.638;10.134;2022-09-21T05:53:42;3.92;;;2.20;;
39322;SDS011;25036;53.638;10.134;2022-09-21T05:54:51;5.47;;;2.58;;
39322;SDS011;25036;53.638;10.134;2022-09-21T05:57:01;3.90;;;2.27;;
39322;SDS011;25036;53.638;10.134;2022-09-21T06:00:36;4.07;;;2.50;;
39322;SDS011;25036;53.638;10.134;2022-09-21T06:01:50;4.80;;;2.45;;
39322;SDS011;25036;53.638;10.134;2022-09-21T06:04:10;3.15;;;2.53;;
39322;SDS011;25036;53.638;10.134;2022-09-21T06:05:14;7.38;;;2.50;;
39322;SDS011;25036;53.638;10.134;2022-09-21T06:06:15;4.22;;;2.88;;
39322;SDS011;25036;53.638;10.134;2022-09-21T06:07:16;4.68;;;2.70;;
39322;SDS011;25036;53.638;10.134;2022-09-21T06:08:16;5.47;;;2.60;;
39322;SDS011;25036;53.638;10.134;2022-09-21T06:09:16;3.75;;;2.47;;
39322;SDS011;25036;53.638;10.134;2022-09-21T06:10:16;4.03;;;2.27;;
39322;SDS011;25036;53.638;10.134;2022-09-21T06:11:16;3.83;;;2.30;;
39322;SDS011;25036;53.638;10.134;2022-09-21T06:12:17;4.93;;;2.70;;
39322;SDS011;25036;53.638;10.134;2022-09-21T06:13:17;5.83;;;2.60;;
39322;SDS011;25036;53.638;10.134;2022-09-21T06:14:17;3.47;;;2.35;;
39322;SDS011;25036;53.638;10.134;2022-09-21T06:15:23;3.70;;;2.67;;
39322;SDS011;25036;53.638;10.134;2022-09-21T06:16:23;4.47;;;2.50;;
39322;SDS011;25036;53.638;10.134;2022-09-21T06:17:23;3.65;;;2.50;;
39322;SDS011;25036;53.638;10.134;2022-09-21T06:18:26;4.00;;;2.88;;
39322;SDS011;25036;53.638;10.134;2022-09-21T06:19:26;3.97;;;2.90;;
39322;SDS011;25036;53.638;10.134;2022-09-21T06:20:27;6.05;;;2.70;;
39322;SDS011;25036;53.638;10.134;2022-09-21T06:21:27;8.63;;;3.10;;
39322;SDS011;25036;53.638;10.134;2022-09-21T06:22:27;4.77;;;3.27;;
39322;SDS011;25036;53.638;10.134;2022-09-21T06:23:27;6.10;;;3.80;;
39322;SDS011;25036;53.638;10.134;2022-09-21T06:24:27;4.93;;;3.80;;
39322;SDS011;25036;53.638;10.134;2022-09-21T06:25:28;4.97;;;3.33;;
39322;SDS011;25036;53.638;10.134;2022-09-21T06:26:28;7.13;;;6.07;;
39322;SDS011;25036;53.638;10.134;2022-09-21T06:27:28;6.63;;;5.03;;
39322;SDS011;25036;53.638;10.134;2022-09-21T06:28:28;6.38;;;4.70;;
39322;SDS011;25036;53.638;10.134;2022-09-21T06:29:28;5.00;;;3.40;;
39322;SDS011;25036;53.638;10.134;2022-09-21T06:30:29;5.73;;;4.27;;
39322;SDS011;25036;53.638;10.134;2022-09-21T06:31:30;5.03;;;3.90;;
39322;SDS011;25036;53.638;10.134;2022-09-21T06:32:30;3.47;;;3.00;;
39322;SDS011;25036;53.638;10.134;2022-09-21T06:33:30;4.67;;;3.17;;
39322;SDS011;25036;53.638;10.134;2022-09-21T06:34:30;5.50;;;3.67;;
39322;SDS011;25036;53.638;10.134;2022-09-21T06:35:31;6.47;;;4.22;;